KAIK

Details ICAO KAIK (AIK)
Name Aiken Muni
Region United States
Timezone America/New_York (UTC-4.0)
Plans Departing 7
Arriving 4
Stats Elevation 528 ft / 161 m (AMSL)
Location 33.649279° -81.684389°
Runways 2
Magnetic Variation 6.980° W
Sunrise 2018-05-27 10:20:40 UTC / 2018-05-27 06:20:40 Local
Sunset 2018-05-28 00:30:03 UTC / 2018-05-27 20:30:03 Local
Advertisement - Login to hide

Runways

ID Width Length Bearing (true) Bearing (mag) Surface Threshold Offset Overrun Length
06 100 ft / 30 m 5,496 ft / 1,675 m 60.21° 67.19° Asphalt 0 ft / 0 m 0 ft / 0 m
18 75 ft / 23 m 3,809 ft / 1,161 m 180.37° 187.35° Asphalt 0 ft / 0 m 0 ft / 0 m
24 100 ft / 30 m 5,496 ft / 1,675 m 240.22° 247.20° Asphalt 0 ft / 0 m 0 ft / 0 m
36 75 ft / 23 m 3,809 ft / 1,161 m 0.37° 7.35° Asphalt 0 ft / 0 m 0 ft / 0 m

Map

Weather


0- 5 10 15 20 25 30 35+ Temperature / ° C

Clouds and Precipitation
Forecast for 2018-05-27 18:00 UTC. Updated 3 hours ago

Ground ~20,000 ft ~40,000 ft Winds

METAR

KAIK 272035Z AUTO 11008KT 10SM CLR 27/20 A2998 RMK AO2

TAF

Not found

Frequencies

Recorded 118.02 MHz AWOS 3
Approach 119.15 MHz AUGUSTA APP/DEP
Unicom 122.80 MHz CTAF/UNICOM
Warning: Do not use this data for real-world aviation or navigation. No guarantee of current accuracy is given.